Time;durP1;ratioP1;P1;durP2;ratioP2;P2;SDS_P1;SDS_P2;PMS_P1;PMS_P2;Temp;Humidity;BMP_temperature;BMP_pressure;BME280_temperature;BME280_humidity;BME280_pressure;Samples;Min_cycle;Max_cycle;Signal;HPM_P1;HPM_P2
2023/03/19 00:00:18;;;;;;;10.57;8.00;;;;;;;3.62;100.00;102234.81;2080951;28;20174;-61
2023/03/19 00:01:19;;;;;;;11.27;8.20;;;;;;;3.60;100.00;102237.06;2079990;28;20618;-62
2023/03/19 00:02:20;;;;;;;13.10;8.87;;;;;;;3.59;100.00;102238.22;2080119;28;20514;-62
2023/03/19 00:03:20;;;;;;;13.30;8.43;;;;;;;3.57;100.00;102232.28;2080719;28;20278;-61
2023/03/19 00:04:23;;;;;;;12.47;8.60;;;;;;;2.35;100.00;102051.25;2080169;28;20251;-61
2023/03/19 00:05:23;;;;;;;12.98;8.20;;;;;;;3.43;100.00;102223.66;2079220;28;20187;-61
2023/03/19 00:06:24;;;;;;;13.13;8.43;;;;;;;3.48;100.00;102231.63;2080087;28;20214;-61
2023/03/19 00:07:24;;;;;;;14.33;9.03;;;;;;;3.44;100.00;102236.19;2080199;28;20189;-61
2023/03/19 00:08:25;;;;;;;15.73;7.93;;;;;;;2.59;100.00;102105.19;2078993;28;20443;-61
2023/03/19 00:09:26;;;;;;;10.17;7.60;;;;;;;3.38;100.00;102232.09;2079775;28;20181;-61
2023/03/19 00:10:26;;;;;;;12.10;8.70;;;;;;;3.40;100.00;102234.50;2079799;28;20207;-61
2023/03/19 00:11:27;;;;;;;12.60;8.50;;;;;;;3.35;100.00;102241.03;2080499;28;20199;-62
2023/03/19 00:12:27;;;;;;;11.60;7.90;;;;;;;3.35;100.00;102234.75;2080495;28;20318;-61
2023/03/19 00:13:28;;;;;;;10.70;7.50;;;;;;;3.33;100.00;102235.06;2079949;28;20291;-62
2023/03/19 00:14:28;;;;;;;11.43;8.00;;;;;;;3.33;100.00;102234.28;2080717;28;20200;-62
2023/03/19 00:15:28;;;;;;;12.33;7.80;;;;;;;3.29;100.00;102231.41;2079113;28;20222;-62
2023/03/19 00:16:29;;;;;;;13.70;7.80;;;;;;;3.30;100.00;102234.97;2080129;28;20187;-61
2023/03/19 00:17:30;;;;;;;12.17;7.90;;;;;;;3.32;100.00;102240.91;2079813;28;20183;-61
2023/03/19 00:18:30;;;;;;;16.53;9.00;;;;;;;3.30;100.00;102234.97;2079605;28;20202;-61
2023/03/19 00:19:31;;;;;;;15.00;8.40;;;;;;;3.31;100.00;102240.13;2078945;28;20195;-61
2023/03/19 00:20:31;;;;;;;10.93;7.73;;;;;;;3.30;100.00;102241.25;2080335;28;20186;-61
2023/03/19 00:21:32;;;;;;;12.73;7.53;;;;;;;3.29;100.00;102236.91;2079888;28;20198;-61
2023/03/19 00:22:32;;;;;;;10.43;7.37;;;;;;;3.22;100.00;102224.91;2082927;28;20191;-61
2023/03/19 00:23:33;;;;;;;10.87;7.53;;;;;;;3.26;100.00;102239.53;2086646;28;20819;-61
2023/03/19 00:24:34;;;;;;;10.97;7.77;;;;;;;3.22;100.00;102236.69;2080546;28;20195;-60
2023/03/19 00:25:35;;;;;;;11.90;7.90;;;;;;;3.19;100.00;102234.63;2079770;28;20849;-61
2023/03/19 00:26:36;;;;;;;12.90;7.93;;;;;;;3.09;100.00;102237.03;2078937;28;20195;-61
2023/03/19 00:27:37;;;;;;;12.55;8.48;;;;;;;2.88;100.00;102203.50;2079942;28;20246;-61
2023/03/19 00:28:37;;;;;;;15.47;8.37;;;;;;;3.08;100.00;102240.94;2079457;28;20251;-61
2023/03/19 00:29:38;;;;;;;11.27;8.60;;;;;;;3.07;100.00;102237.38;2079309;28;20206;-62
2023/03/19 00:30:38;;;;;;;14.47;8.57;;;;;;;3.05;100.00;102241.59;2080612;28;20624;-62
2023/03/19 00:31:40;;;;;;;13.43;8.30;;;;;;;3.06;100.00;102230.31;2079918;28;20175;-61
2023/03/19 00:32:40;;;;;;;10.70;7.60;;;;;;;3.12;100.00;102242.63;2080016;28;20186;-61
2023/03/19 00:33:42;;;;;;;12.17;7.30;;;;;;;3.15;100.00;102236.47;2080407;28;20202;-61
2023/03/19 00:34:42;;;;;;;14.27;7.38;;;;;;;3.16;100.00;102240.00;2079937;28;20172;-61
2023/03/19 00:35:43;;;;;;;11.70;7.63;;;;;;;3.18;100.00;102241.25;2079774;28;20198;-61
2023/03/19 00:36:44;;;;;;;11.37;7.20;;;;;;;2.20;100.00;102073.81;2080708;28;20262;-61
2023/03/19 00:37:44;;;;;;;11.05;7.35;;;;;;;3.24;100.00;102237.13;2078879;28;20260;-61
2023/03/19 00:38:46;;;;;;;11.80;7.53;;;;;;;3.24;100.00;102236.34;2079479;28;20179;-61
2023/03/19 00:39:46;;;;;;;10.85;7.40;;;;;;;3.17;100.00;102216.94;2079074;28;20691;-60
2023/03/19 00:40:47;;;;;;;11.80;7.90;;;;;;;3.21;100.00;102235.09;2079325;28;20176;-61
2023/03/19 00:41:49;;;;;;;10.37;7.40;;;;;;;3.14;100.00;102215.69;2086705;28;20275;-61
2023/03/19 00:42:49;;;;;;;11.68;8.02;;;;;;;3.17;100.00;102230.63;2079640;28;20253;-61
2023/03/19 00:43:55;;;;;;;11.63;7.40;;;;;;;3.17;100.00;102228.69;2072095;28;20178;-62
2023/03/19 00:44:55;;;;;;;11.52;8.40;;;;;;;2.13;100.00;102068.13;2086257;28;20312;-62
2023/03/19 00:45:56;;;;;;;10.43;7.20;;;;;;;3.08;100.00;102227.25;2083014;28;20215;-61
2023/03/19 00:46:57;;;;;;;11.25;7.63;;;;;;;3.00;100.00;102222.66;2079995;28;20186;-61
2023/03/19 00:47:57;;;;;;;10.37;7.93;;;;;;;2.93;100.00;102220.50;2078644;28;20189;-61
2023/03/19 00:48:58;;;;;;;14.17;8.23;;;;;;;2.94;100.00;102222.09;2079326;28;20308;-61
2023/03/19 00:49:58;;;;;;;10.37;7.50;;;;;;;2.76;100.00;102201.56;2080374;28;20179;-60
2023/03/19 00:51:07;;;;;;;10.47;7.73;;;;;;;2.86;100.00;102225.75;2079024;28;20192;-61
2023/03/19 00:52:07;;;;;;;13.43;7.90;;;;;;;1.67;100.00;102046.66;2079501;28;20248;-61
2023/03/19 00:53:08;;;;;;;11.23;7.73;;;;;;;2.81;100.00;102223.22;2079491;28;20194;-61
2023/03/19 00:54:10;;;;;;;10.60;7.47;;;;;;;2.84;100.00;102219.00;2080526;28;20170;-61
2023/03/19 00:55:11;;;;;;;11.27;7.57;;;;;;;2.87;100.00;102229.28;2078839;28;20530;-61
2023/03/19 00:56:13;;;;;;;10.50;7.47;;;;;;;2.91;100.00;102230.19;2080346;28;20189;-62
2023/03/19 00:57:14;;;;;;;12.07;7.70;;;;;;;1.97;100.00;102071.88;2080039;28;20583;-61
2023/03/19 00:58:14;;;;;;;10.97;7.83;;;;;;;2.89;100.00;102224.25;2078982;28;20218;-61
2023/03/19 00:59:15;;;;;;;11.77;8.33;;;;;;;2.90;100.00;102223.13;2078459;28;20401;-61
2023/03/19 01:00:17;;;;;;;10.93;7.87;;;;;;;2.87;100.00;102227.34;2079192;28;20740;-61
2023/03/19 01:01:18;;;;;;;10.93;7.90;;;;;;;2.76;100.00;102203.47;2079582;28;20206;-62
2023/03/19 01:02:18;;;;;;;13.20;8.00;;;;;;;2.89;100.00;102221.53;2079667;28;20198;-62
2023/03/19 01:03:19;;;;;;;17.40;8.20;;;;;;;3.02;100.00;102234.06;2080072;28;20181;-61
2023/03/19 01:04:20;;;;;;;14.13;8.30;;;;;;;3.06;100.00;102237.72;2079117;28;20239;-61
2023/03/19 01:05:21;;;;;;;13.83;8.37;;;;;;;2.97;100.00;102215.94;2078944;28;20711;-62
2023/03/19 01:06:21;;;;;;;12.80;7.30;;;;;;;3.11;100.00;102232.81;2080251;28;20193;-61
2023/03/19 01:07:22;;;;;;;11.07;7.63;;;;;;;3.07;100.00;102233.84;2079785;28;20656;-62
2023/03/19 01:08:22;;;;;;;12.17;7.80;;;;;;;3.06;100.00;102222.09;2079370;28;20180;-61
2023/03/19 01:09:23;;;;;;;11.00;7.33;;;;;;;3.09;100.00;102218.66;2078579;28;20181;-61
2023/03/19 01:10:23;;;;;;;12.23;8.33;;;;;;;3.09;100.00;102224.13;2086056;28;20252;-61
2023/03/19 01:11:24;;;;;;;14.03;8.60;;;;;;;3.08;100.00;102225.28;2080734;28;20191;-61
2023/03/19 01:12:25;;;;;;;15.87;8.60;;;;;;;3.08;100.00;102230.75;2078599;28;20187;-61
2023/03/19 01:13:25;;;;;;;18.23;7.97;;;;;;;3.11;100.00;102229.28;2079394;28;21012;-62
2023/03/19 01:14:26;;;;;;;11.73;7.50;;;;;;;3.09;100.00;102231.56;2080259;28;20189;-61
2023/03/19 01:15:26;;;;;;;11.83;7.70;;;;;;;3.06;100.00;102226.75;2079072;28;20823;-61
2023/03/19 01:16:27;;;;;;;12.17;7.60;;;;;;;1.71;100.00;102009.28;2080026;28;20499;-61
2023/03/19 01:17:28;;;;;;;11.02;7.55;;;;;;;2.99;100.00;102226.53;2079568;28;20182;-61
2023/03/19 01:18:28;;;;;;;11.10;7.70;;;;;;;2.94;100.00;102224.03;2079848;28;20182;-61
2023/03/19 01:19:29;;;;;;;12.27;8.00;;;;;;;2.90;100.00;102234.06;2079118;28;20185;-60
2023/03/19 01:20:30;;;;;;;12.67;7.27;;;;;;;2.90;100.00;102223.13;2079412;28;20205;-61
2023/03/19 01:21:31;;;;;;;10.48;7.25;;;;;;;2.78;100.00;102220.38;2079968;28;20184;-61
2023/03/19 01:22:35;;;;;;;14.23;8.03;;;;;;;2.67;100.00;102228.22;2079334;28;20483;-60
2023/03/19 01:23:35;;;;;;;17.58;7.72;;;;;;;2.65;100.00;102219.56;2078761;28;20188;-61
2023/03/19 01:24:36;;;;;;;16.00;7.63;;;;;;;2.64;100.00;102217.16;2083557;28;20225;-61
2023/03/19 01:25:38;;;;;;;12.43;8.00;;;;;;;2.66;100.00;102217.63;2079855;28;20173;-61
2023/03/19 01:26:38;;;;;;;13.93;7.60;;;;;;;2.63;100.00;102215.56;2079621;28;20184;-61
2023/03/19 01:27:39;;;;;;;14.37;7.90;;;;;;;2.63;100.00;102216.34;2079891;28;20734;-61
2023/03/19 01:28:40;;;;;;;11.33;8.43;;;;;;;2.44;100.00;102191.50;2079315;28;20677;-62
2023/03/19 01:29:40;;;;;;;12.97;8.23;;;;;;;2.58;100.00;102207.59;2079265;28;20213;-62
2023/03/19 01:30:41;;;;;;;12.73;8.73;;;;;;;2.65;100.00;102216.03;2079492;28;20195;-60
2023/03/19 01:31:41;;;;;;;12.93;7.50;;;;;;;2.65;100.00;102208.63;2079507;28;20189;-61
2023/03/19 01:32:41;;;;;;;9.60;7.03;;;;;;;2.68;100.00;102210.66;2080197;28;21828;-60
2023/03/19 01:33:42;;;;;;;11.50;7.00;;;;;;;2.69;100.00;102206.81;2078432;28;20612;-61
2023/03/19 01:34:42;;;;;;;12.67;7.57;;;;;;;2.69;100.00;102204.06;2079896;28;20187;-61
2023/03/19 01:35:46;;;;;;;13.03;7.53;;;;;;;2.69;100.00;102206.00;2079733;28;20197;-60
2023/03/19 01:36:47;;;;;;;10.90;7.47;;;;;;;2.64;100.00;102192.53;2080313;28;20181;-61
2023/03/19 01:37:48;;;;;;;10.07;7.22;;;;;;;2.72;100.00;102199.84;2079064;28;20196;-61
2023/03/19 01:38:48;;;;;;;12.03;8.10;;;;;;;2.69;100.00;102211.47;2079320;28;20737;-61
2023/03/19 01:39:49;;;;;;;10.87;7.80;;;;;;;2.69;100.00;102206.00;2079685;28;20312;-62
2023/03/19 01:40:49;;;;;;;9.53;7.03;;;;;;;2.69;100.00;102206.00;2079656;28;20205;-62
2023/03/19 01:41:50;;;;;;;11.10;7.27;;;;;;;2.71;100.00;102204.53;2079168;28;20264;-62
2023/03/19 01:43:19;;;;;;;11.40;7.20;;;;;;;2.53;100.00;102173.03;2079374;28;20244;-61
2023/03/19 01:44:29;;;;;;;12.00;7.97;;;;;;;2.73;100.00;102207.69;2078759;28;20202;-61
2023/03/19 01:45:35;;;;;;;11.00;7.25;;;;;;;2.73;100.00;102226.84;2079270;28;20193;-61
2023/03/19 01:46:37;;;;;;;9.70;6.65;;;;;;;2.73;100.00;102202.22;2080219;28;20196;-61
2023/03/19 01:47:41;;;;;;;8.02;6.68;;;;;;;2.54;100.00;102173.81;2079289;28;20204;-61
2023/03/19 01:48:45;;;;;;;10.85;6.60;;;;;;;2.76;100.00;102201.56;2079194;28;20169;-61
2023/03/19 01:49:54;;;;;;;8.57;6.65;;;;;;;2.80;100.00;102199.75;2079642;28;20177;-61
2023/03/19 01:50:56;;;;;;;10.63;7.30;;;;;;;2.77;100.00;102178.50;2079989;28;20646;-61
2023/03/19 01:51:59;;;;;;;10.45;7.22;;;;;;;2.90;100.00;102188.31;2078653;28;20200;-61
2023/03/19 01:53:00;;;;;;;11.88;7.30;;;;;;;2.93;100.00;102201.31;2082123;28;20196;-61
2023/03/19 01:54:06;;;;;;;13.18;6.95;;;;;;;2.69;100.00;102187.66;2080947;28;20291;-61
2023/03/19 01:55:07;;;;;;;11.60;7.20;;;;;;;2.81;100.00;102182.16;2079908;28;20223;-60
2023/03/19 01:56:12;;;;;;;11.52;6.78;;;;;;;2.89;100.00;102189.47;2083252;28;20191;-61
2023/03/19 01:57:14;;;;;;;8.73;6.97;;;;;;;2.92;100.00;102183.28;2081791;28;20200;-61
2023/03/19 01:58:14;;;;;;;10.68;8.43;;;;;;;2.89;100.00;102183.19;2080949;28;20184;-61
2023/03/19 01:59:31;;;;;;;12.03;9.00;;;;;;;2.93;100.00;102179.41;2080726;28;20215;-61
2023/03/19 02:00:34;;;;;;;13.18;7.95;;;;;;;3.05;100.00;102198.59;2082875;28;20246;-62
2023/03/19 02:01:39;;;;;;;8.95;6.88;;;;;;;3.07;100.00;102198.22;2081366;28;20291;-60
2023/03/19 02:02:42;;;;;;;9.02;7.15;;;;;;;3.07;100.00;102192.75;2080315;28;20205;-61
2023/03/19 02:03:44;;;;;;;10.35;6.95;;;;;;;3.14;100.00;102203.94;2081660;28;20207;-61
2023/03/19 02:04:50;;;;;;;12.00;7.00;;;;;;;2.53;100.00;102090.13;2081118;28;20188;-61
2023/03/19 02:05:52;;;;;;;9.90;7.03;;;;;;;3.19;100.00;102198.22;2080816;28;20169;-62
2023/03/19 02:06:57;;;;;;;11.15;6.90;;;;;;;3.19;100.00;102204.50;2080711;28;20176;-61
2023/03/19 02:08:00;;;;;;;10.57;7.07;;;;;;;3.17;100.00;102195.84;2081122;28;20210;-61
2023/03/19 02:09:02;;;;;;;11.13;6.85;;;;;;;2.96;100.00;102183.41;2073191;28;20545;-61
2023/03/19 02:10:07;;;;;;;10.07;6.90;;;;;;;3.17;100.00;102206.78;2083679;28;20184;-61
2023/03/19 02:11:08;;;;;;;9.13;6.40;;;;;;;3.12;100.00;102192.50;2082434;28;20189;-61
2023/03/19 02:12:09;;;;;;;9.73;6.68;;;;;;;3.08;100.00;102216.28;2086649;28;20184;-61
2023/03/19 02:13:10;;;;;;;9.23;6.70;;;;;;;3.09;100.00;102201.44;2084113;28;20343;-61
2023/03/19 02:14:12;;;;;;;9.40;6.10;;;;;;;3.08;100.00;102197.09;2085010;28;20434;-61
2023/03/19 02:15:12;;;;;;;9.68;6.43;;;;;;;2.98;100.00;102203.81;2085699;28;20200;-61
2023/03/19 02:16:14;;;;;;;10.23;6.40;;;;;;;2.40;100.00;102143.25;2080778;28;20215;-60
2023/03/19 02:17:15;;;;;;;9.65;6.07;;;;;;;2.84;100.00;102200.66;2080499;28;20844;-61
2023/03/19 02:18:16;;;;;;;8.57;6.15;;;;;;;2.84;100.00;102206.13;2080698;28;20184;-62
2023/03/19 02:19:24;;;;;;;10.15;6.50;;;;;;;2.70;100.00;102197.44;2080524;28;20195;-61
2023/03/19 02:20:54;;;;;;;9.98;6.65;;;;;;;2.77;100.00;102207.84;2081252;28;20235;-61
2023/03/19 02:21:55;;;;;;;12.30;6.20;;;;;;;2.72;100.00;102213.53;2075927;28;20281;-61
2023/03/19 02:23:10;;;;;;;8.47;6.07;;;;;;;2.70;100.00;102219.34;2080712;28;20774;-61
2023/03/19 02:24:31;;;;;;;10.50;6.72;;;;;;;2.66;100.00;102206.66;2081138;28;20157;-61
2023/03/19 02:26:08;;;;;;;10.85;7.45;;;;;;;2.62;100.00;102209.28;2079852;28;20197;-60
2023/03/19 02:27:09;;;;;;;12.10;7.82;;;;;;;2.58;100.00;102218.53;2073650;28;20255;-61
2023/03/19 02:28:10;;;;;;;16.07;8.00;;;;;;;2.42;100.00;102201.97;2079838;28;20189;-61
2023/03/19 02:29:11;;;;;;;11.18;7.60;;;;;;;2.46;100.00;102241.19;2080396;28;20188;-61
2023/03/19 02:30:23;;;;;;;12.75;7.85;;;;;;;2.38;100.00;102227.63;2081493;28;20187;-61
2023/03/19 02:31:24;;;;;;;12.32;7.80;;;;;;;2.36;100.00;102210.75;2088558;28;20188;-61
2023/03/19 02:32:25;;;;;;;12.73;7.33;;;;;;;2.36;100.00;102218.97;2088121;28;20185;-61
2023/03/19 02:33:26;;;;;;;11.77;7.45;;;;;;;2.35;100.00;102204.47;2088798;28;20192;-61
2023/03/19 02:34:27;;;;;;;9.97;7.73;;;;;;;2.35;100.00;102211.88;2087863;28;20652;-61
2023/03/19 02:35:32;;;;;;;12.32;7.93;;;;;;;2.38;100.00;102209.28;2072679;28;20192;-61
2023/03/19 02:36:43;;;;;;;9.68;6.80;;;;;;;2.38;100.00;102211.19;2080662;28;20708;-61
2023/03/19 02:37:44;;;;;;;12.02;7.97;;;;;;;2.35;100.00;102206.38;2072912;28;20621;-61
2023/03/19 02:38:46;;;;;;;10.00;7.13;;;;;;;2.41;100.00;102214.03;2078145;28;20189;-61
2023/03/19 02:40:03;;;;;;;11.30;7.30;;;;;;;2.45;100.00;102212.25;2080883;28;20200;-61
2023/03/19 02:41:07;;;;;;;11.43;7.13;;;;;;;2.50;100.00;102216.69;2079507;28;20613;-61
2023/03/19 02:42:09;;;;;;;11.27;7.25;;;;;;;2.53;100.00;102213.28;2080735;28;20197;-61
2023/03/19 02:43:10;;;;;;;10.10;6.97;;;;;;;2.62;100.00;102220.25;2081917;28;20666;-61
2023/03/19 02:44:12;;;;;;;9.70;6.47;;;;;;;2.65;100.00;102211.34;2081346;28;20216;-62
2023/03/19 02:45:12;;;;;;;10.73;6.70;;;;;;;1.54;100.00;102034.06;2087392;28;20815;-61
2023/03/19 02:46:13;;;;;;;13.10;6.70;;;;;;;2.65;100.00;102211.34;2088842;28;20513;-61
2023/03/19 02:47:14;;;;;;;11.90;7.17;;;;;;;1.77;100.00;102075.47;2073732;28;20188;-61
2023/03/19 02:48:14;;;;;;;11.55;7.22;;;;;;;1.74;100.00;102078.84;2080581;28;20667;-61
2023/03/19 02:49:15;;;;;;;12.90;6.93;;;;;;;1.73;100.00;102077.28;2080392;28;20195;-61
2023/03/19 02:50:15;;;;;;;8.53;6.63;;;;;;;2.52;100.00;102207.00;2080449;28;20355;-61
2023/03/19 02:51:16;;;;;;;10.37;6.03;;;;;;;2.52;100.00;102208.94;2081059;28;20193;-61
2023/03/19 02:52:17;;;;;;;7.60;5.70;;;;;;;2.49;100.00;102207.69;2081753;28;20279;-61
2023/03/19 02:53:17;;;;;;;10.35;6.55;;;;;;;2.40;100.00;102197.97;2085224;28;20209;-61
2023/03/19 02:54:18;;;;;;;8.30;5.93;;;;;;;2.49;100.00;102213.16;2080549;28;20235;-61
2023/03/19 02:55:20;;;;;;;11.93;6.80;;;;;;;2.51;100.00;102205.41;2079611;28;20191;-62
2023/03/19 02:56:20;;;;;;;10.07;7.25;;;;;;;1.42;100.00;102020.38;2080546;28;20682;-61
2023/03/19 02:57:21;;;;;;;12.00;7.40;;;;;;;2.56;100.00;102207.91;2080898;28;20189;-61
2023/03/19 02:58:21;;;;;;;17.50;7.70;;;;;;;2.58;100.00;102215.78;2080674;28;20292;-62
2023/03/19 02:59:21;;;;;;;13.60;7.10;;;;;;;2.48;100.00;102197.88;2079841;28;20192;-60
2023/03/19 03:00:22;;;;;;;10.50;6.97;;;;;;;2.55;100.00;102209.06;2080378;28;20199;-61
2023/03/19 03:01:23;;;;;;;10.63;7.40;;;;;;;2.51;100.00;102215.56;2080685;28;20248;-61
2023/03/19 03:02:24;;;;;;;10.55;6.85;;;;;;;2.50;100.00;102219.41;2080753;28;20192;-61
2023/03/19 03:03:24;;;;;;;12.37;7.23;;;;;;;2.46;100.00;102213.06;2079687;28;20237;-61
2023/03/19 03:04:25;;;;;;;11.53;7.10;;;;;;;2.46;100.00;102216.56;2080997;28;20301;-60
2023/03/19 03:05:26;;;;;;;10.95;6.72;;;;;;;2.43;100.00;102211.78;2080073;28;20232;-62
2023/03/19 03:06:26;;;;;;;11.40;6.80;;;;;;;0.85;100.00;101962.16;2080784;28;20481;-62
2023/03/19 03:07:26;;;;;;;11.60;6.47;;;;;;;2.45;100.00;102211.44;2080308;28;20250;-61
2023/03/19 03:08:27;;;;;;;7.90;5.70;;;;;;;2.44;100.00;102205.19;2080028;28;20192;-62
2023/03/19 03:09:27;;;;;;;9.90;6.23;;;;;;;2.45;100.00;102206.78;2080083;28;20189;-61
2023/03/19 03:10:28;;;;;;;9.30;6.87;;;;;;;2.47;100.00;102209.94;2083522;28;20669;-62
2023/03/19 03:11:28;;;;;;;9.00;6.47;;;;;;;2.45;100.00;102214.97;2080652;28;20185;-61
2023/03/19 03:12:29;;;;;;;9.20;6.57;;;;;;;2.18;100.00;102160.09;2080306;28;20185;-61
2023/03/19 03:13:29;;;;;;;9.53;5.97;;;;;;;1.47;100.00;102047.50;2081105;28;20185;-62
2023/03/19 03:14:30;;;;;;;9.27;6.20;;;;;;;2.45;100.00;102206.78;2080848;28;20209;-61
2023/03/19 03:15:30;;;;;;;14.07;6.57;;;;;;;2.45;100.00;102214.16;2080367;28;20636;-61
2023/03/19 03:16:31;;;;;;;12.20;6.50;;;;;;;1.75;100.00;102088.69;2080142;28;20192;-62
2023/03/19 03:17:32;;;;;;;13.25;6.72;;;;;;;2.49;100.00;102218.63;2080494;28;20634;-61
2023/03/19 03:18:32;;;;;;;13.67;6.53;;;;;;;2.48;100.00;102214.31;2079705;28;20583;-61
2023/03/19 03:19:34;;;;;;;11.37;6.20;;;;;;;1.48;100.00;102054.56;2080440;28;20185;-61
2023/03/19 03:20:34;;;;;;;11.25;6.70;;;;;;;2.51;100.00;102213.63;2081068;28;20646;-61
2023/03/19 03:21:35;;;;;;;11.47;6.50;;;;;;;2.45;100.00;102214.97;2079754;28;20859;-61
2023/03/19 03:22:35;;;;;;;8.33;6.40;;;;;;;2.35;100.00;102199.00;2080632;28;20208;-61
2023/03/19 03:23:36;;;;;;;9.37;6.30;;;;;;;2.20;100.00;102168.75;2082052;28;20191;-61
2023/03/19 03:24:38;;;;;;;9.23;6.23;;;;;;;2.44;100.00;102213.38;2080973;28;20213;-61
2023/03/19 03:25:38;;;;;;;9.20;5.80;;;;;;;2.18;100.00;102174.56;2080118;28;20185;-61
2023/03/19 03:26:38;;;;;;;9.27;5.93;;;;;;;2.40;100.00;102217.13;2081321;28;20276;-61
2023/03/19 03:27:40;;;;;;;11.13;6.33;;;;;;;1.23;100.00;102020.09;2079095;28;20196;-61
2023/03/19 03:28:40;;;;;;;33.00;9.43;;;;;;;2.40;100.00;102215.19;2079622;28;20204;-61
2023/03/19 03:29:41;;;;;;;29.30;8.60;;;;;;;2.00;100.00;102161.44;2080536;28;20651;-61
2023/03/19 03:30:41;;;;;;;11.67;7.10;;;;;;;2.31;100.00;102210.97;2080909;28;20181;-61
2023/03/19 03:31:41;;;;;;;15.10;6.90;;;;;;;2.26;100.00;102203.75;2072447;28;20269;-61
2023/03/19 03:32:42;;;;;;;12.90;7.47;;;;;;;1.53;100.00;102097.25;2078620;28;20188;-61
2023/03/19 03:33:43;;;;;;;11.33;7.10;;;;;;;2.12;100.00;102205.19;2080754;28;20220;-61
2023/03/19 03:34:45;;;;;;;11.50;6.60;;;;;;;2.06;100.00;102207.34;2080041;28;20262;-61
2023/03/19 03:35:45;;;;;;;9.85;6.60;;;;;;;1.14;100.00;102079.44;2080765;28;20193;-62
2023/03/19 03:36:46;;;;;;;8.53;6.33;;;;;;;1.88;100.00;102208.66;2080473;28;20201;-62
2023/03/19 03:37:47;;;;;;;10.60;6.23;;;;;;;1.88;100.00;102205.91;2079955;28;20232;-61
2023/03/19 03:38:48;;;;;;;10.77;6.18;;;;;;;1.89;100.00;102201.22;2079662;28;20562;-61
2023/03/19 03:39:49;;;;;;;9.43;6.13;;;;;;;1.88;100.00;102210.56;2080320;28;20232;-62
2023/03/19 03:40:54;;;;;;;10.52;6.70;;;;;;;1.90;100.00;102211.84;2080891;28;20249;-62
2023/03/19 03:41:54;;;;;;;9.00;5.97;;;;;;;1.95;100.00;102208.13;2079104;28;20200;-62
2023/03/19 03:42:56;;;;;;;9.50;5.93;;;;;;;1.81;100.00;102196.66;2080789;28;20235;-61
2023/03/19 03:43:56;;;;;;;8.05;5.80;;;;;;;1.81;100.00;102210.34;2079589;28;20254;-61
2023/03/19 03:44:56;;;;;;;10.43;6.33;;;;;;;1.66;100.00;102200.00;2080306;28;20261;-60
2023/03/19 03:45:57;;;;;;;8.10;5.90;;;;;;;1.44;100.00;102179.28;2080224;28;20197;-61
2023/03/19 03:46:57;;;;;;;8.47;5.70;;;;;;;1.51;100.00;102195.97;2080926;28;20654;-61
2023/03/19 03:47:58;;;;;;;8.23;6.17;;;;;;;1.55;100.00;102210.53;2079762;28;20192;-61
2023/03/19 03:48:58;;;;;;;6.77;5.40;;;;;;;1.57;100.00;102218.41;2079625;28;20187;-63
2023/03/19 03:49:59;;;;;;;7.57;5.60;;;;;;;1.32;100.00;102178.41;2079768;28;20203;-61
2023/03/19 03:51:00;;;;;;;10.47;5.90;;;;;;;1.55;100.00;102226.91;2080698;28;20568;-61
2023/03/19 03:52:00;;;;;;;7.70;6.00;;;;;;;1.54;100.00;102221.81;2079574;28;20196;-61
2023/03/19 03:53:01;;;;;;;10.67;6.13;;;;;;;1.45;100.00;102221.84;2079569;28;20272;-61
2023/03/19 03:54:01;;;;;;;9.47;6.30;;;;;;;1.48;100.00;102217.66;2080199;28;20279;-61
2023/03/19 03:55:02;;;;;;;9.00;6.07;;;;;;;0.51;100.00;102082.47;2080712;28;20669;-61
2023/03/19 03:56:02;;;;;;;8.03;5.87;;;;;;;1.41;100.00;102229.13;2088439;28;20231;-61
2023/03/19 03:57:03;;;;;;;7.67;6.00;;;;;;;1.37;100.00;102227.38;2080644;28;20629;-62
2023/03/19 03:58:03;;;;;;;9.40;5.87;;;;;;;1.37;100.00;102224.66;2079826;28;20196;-61
2023/03/19 03:59:04;;;;;;;8.37;6.10;;;;;;;1.16;100.00;102197.34;2079342;28;20189;-61
2023/03/19 04:00:05;;;;;;;12.73;6.30;;;;;;;1.45;100.00;102230.06;2080102;28;20654;-61
2023/03/19 04:01:06;;;;;;;8.77;5.95;;;;;;;1.46;100.00;102234.41;2079614;28;20204;-61
2023/03/19 04:02:07;;;;;;;7.97;5.68;;;;;;;1.36;100.00;102210.22;2079275;28;20197;-62
2023/03/19 04:03:07;;;;;;;7.90;5.63;;;;;;;1.51;100.00;102228.75;2080687;28;20213;-62
2023/03/19 04:04:08;;;;;;;9.33;5.57;;;;;;;1.50;100.00;102232.59;2080235;28;20184;-62
2023/03/19 04:05:08;;;;;;;7.73;5.80;;;;;;;1.55;100.00;102226.16;2079442;28;20184;-61
2023/03/19 04:06:17;;;;;;;9.63;5.83;;;;;;;1.57;100.00;102230.13;2080276;28;20619;-62
2023/03/19 04:07:18;;;;;;;8.05;5.65;;;;;;;1.64;100.00;102226.88;2080588;28;20193;-61
2023/03/19 04:08:18;;;;;;;9.37;6.10;;;;;;;1.69;100.00;102226.69;2079870;28;20223;-61
2023/03/19 04:09:19;;;;;;;7.53;5.80;;;;;;;1.72;100.00;102226.81;2079988;28;20200;-62
2023/03/19 04:10:19;;;;;;;10.33;5.97;;;;;;;1.79;100.00;102231.72;2079854;28;20200;-61
2023/03/19 04:11:20;;;;;;;9.60;6.07;;;;;;;1.85;100.00;102230.41;2083094;28;20196;-61
2023/03/19 04:12:20;;;;;;;11.70;6.20;;;;;;;1.01;100.00;102101.53;2085931;28;20189;-61
2023/03/19 04:13:21;;;;;;;8.57;5.70;;;;;;;1.94;100.00;102231.09;2081676;28;20711;-60
2023/03/19 04:14:21;;;;;;;12.10;5.87;;;;;;;1.96;100.00;102228.84;2088761;28;20184;-61
2023/03/19 04:15:22;;;;;;;10.83;6.30;;;;;;;1.99;100.00;102225.44;2079786;28;20185;-61
2023/03/19 04:16:23;;;;;;;11.50;6.30;;;;;;;2.05;100.00;102229.56;2080136;28;20201;-60
2023/03/19 04:17:23;;;;;;;10.68;6.05;;;;;;;2.08;100.00;102235.16;2080116;28;20223;-61
2023/03/19 04:18:24;;;;;;;12.43;5.73;;;;;;;2.06;100.00;102222.97;2080064;28;20193;-61
2023/03/19 04:19:26;;;;;;;10.37;5.87;;;;;;;2.05;100.00;102235.03;2079292;28;20193;-62
2023/03/19 04:20:26;;;;;;;14.38;6.00;;;;;;;2.08;100.00;102235.16;2083288;28;20191;-60
2023/03/19 04:21:27;;;;;;;8.63;5.50;;;;;;;2.07;100.00;102233.56;2084753;28;20304;-62
2023/03/19 04:22:28;;;;;;;10.93;6.30;;;;;;;2.11;100.00;102230.97;2079991;28;20220;-61
2023/03/19 04:23:28;;;;;;;9.63;5.60;;;;;;;2.13;100.00;102234.97;2080525;28;20185;-62
2023/03/19 04:24:29;;;;;;;12.80;5.73;;;;;;;2.11;100.00;102229.00;2080311;28;20223;-62
2023/03/19 04:25:30;;;;;;;8.83;5.70;;;;;;;1.94;100.00;102212.78;2079977;28;20185;-61
2023/03/19 04:26:30;;;;;;;8.93;5.97;;;;;;;2.02;100.00;102224.78;2079573;28;20447;-62
2023/03/19 04:27:31;;;;;;;9.90;5.70;;;;;;;2.05;100.00;102235.03;2079758;28;20767;-61
2023/03/19 04:28:32;;;;;;;12.30;5.07;;;;;;;1.24;100.00;102102.81;2079706;28;20212;-61
2023/03/19 04:29:33;;;;;;;9.85;6.00;;;;;;;1.99;100.00;102220.78;2080251;28;20181;-61
2023/03/19 04:30:33;;;;;;;8.33;5.60;;;;;;;2.05;100.00;102232.31;2079837;28;20646;-61
2023/03/19 04:31:34;;;;;;;9.27;6.20;;;;;;;1.99;100.00;102237.19;2079079;28;20193;-61
2023/03/19 04:32:35;;;;;;;11.03;5.70;;;;;;;1.22;100.00;102121.47;2080232;28;20173;-61
2023/03/19 04:33:36;;;;;;;14.57;6.15;;;;;;;1.88;100.00;102230.53;2080279;28;20185;-62
2023/03/19 04:34:36;;;;;;;9.07;5.23;;;;;;;1.90;100.00;102224.72;2080218;28;20185;-61
2023/03/19 04:35:37;;;;;;;12.70;6.20;;;;;;;1.89;100.00;102226.66;2079505;28;20566;-61
2023/03/19 04:36:37;;;;;;;13.77;6.50;;;;;;;1.23;100.00;102115.66;2080721;28;20267;-62
2023/03/19 04:37:38;;;;;;;15.07;6.37;;;;;;;1.97;100.00;102234.00;2078848;28;20221;-61
2023/03/19 04:38:39;;;;;;;14.43;6.85;;;;;;;1.80;100.00;102201.31;2079558;28;20610;-61
2023/03/19 04:39:39;;;;;;;18.43;7.03;;;;;;;2.02;100.00;102225.56;2079697;28;20285;-62
2023/03/19 04:40:40;;;;;;;10.30;7.07;;;;;;;2.08;100.00;102234.34;2077855;28;20279;-61
2023/03/19 04:41:40;;;;;;;10.70;6.68;;;;;;;2.07;100.00;102230.03;2078859;28;20335;-61
2023/03/19 04:42:43;;;;;;;9.20;6.20;;;;;;;2.06;100.00;102226.47;2078840;28;20232;-61
2023/03/19 04:43:43;;;;;;;10.10;6.72;;;;;;;1.16;100.00;102109.94;2079785;28;20584;-61
2023/03/19 04:44:44;;;;;;;10.03;6.70;;;;;;;2.05;100.00;102226.84;2079825;28;20228;-62